シドニー の空港の天気 - METARとTAF

シドニー国際空港 ( YSSY / SYD ) - オーストラリア ニューサウスウェールズ州、Mascot
飛行場実況気象(Metar)
観測時間12/13 07:00 AEDT (12/12 20:00 UTC)
風向・風速北 4m/s
視程10km以上
天気現象周辺でしゅう雨
少しの雲 雲底高度 300m
全天の8割程度の雲 雲底高度 3660m
気温23℃
湿度83%
気圧1004hPa
METARYSSY 122000Z 01007KT 9999 VCSH FEW010 BKN120 23/20 Q1004 INTER 2030/2300 5000 RA BKN010
過去の天気等 Google飛行場航空写真 Wunderground天気予報

過去48時間のMETAR

飛行場予報(TAF)
発表時間: 12/13 06:42 AEDT (12/12 19:42 UTC)
予報対象時間: 13日7時 AEDT ~ 14日11時 AEDT
風向・風速北北東 5m/s
視程10km以上
天気現象弱い雨
全天の4割程度の雲 雲底高度 300m
全天の8割程度の雲 雲底高度 610m
13日12時 AEDT から
風向・風速北北東 8m/s
視程10km以上
天気現象弱いしゅう雨
全天の4割程度の雲 雲底高度 760m
13日15時 AEDT から
風向・風速北東 9m/s 瞬間風速 14m/s
視程10km以上
天気現象弱いしゅう雨
全天の4割程度の雲 雲底高度 910m
13日20時 AEDT から
風向・風速北北東 8m/s
視程10km以上
天気現象弱いしゅう雨
全天の4割程度の雲 雲底高度 610m
13日16時 AEDT ~ 13日23時 AEDT に 確率 30% で一時的に
風向・風速不定 13m/s 瞬間風速 21m/s
視程3000m
天気現象雷雨
全天の4割程度の雲 雲底高度 460m
少しの積乱雲 雲底高度 910m
TAF AMD YSSY 121942Z 1220/1324 02010KT 9999 -RA SCT010 BKN020
FM130100 03015KT 9999 -SHRA SCT025
FM130400 04018G28KT 9999 -SHRA SCT030
FM130900 03015KT 9999 -SHRA SCT020 INTER 1220/1301 4000 RA BKN010
PROB30 TEMPO 1305/1312 VRB25G40KT 3000 TSRA SCT015 FEW030CB